WA5GP Weather Reports


Display with metric or nautical units.
time (UTC)temp
F
wind
direction
speed
MPH
gust
MPH
rain 1hr
in
rain 24hr
in
rain mn
in
humidity
%
barometer
mb
20210918201538 92 104 0.0 6.0 0.00 0.00 0.00 41 1009.6
20210918200018 92 69 1.0 11.0 0.00 0.00 0.00 40 1009.9
20210918194511 92 61 3.0 10.0 0.00 0.00 0.00 43 1010.2
20210918193008 92 81 2.0 6.0 0.00 0.00 0.00 40 1010.4
20210918191504 92 37 3.0 8.0 0.00 0.00 0.00 41 1010.8
20210918190210 92 179 1.0 6.0 0.00 0.00 0.00 42 1010.9
20210918184604 91 95 2.0 7.0 0.00 0.00 0.00 44 1011.3
20210918183115 90 101 3.0 10.0 0.00 0.00 0.00 44 1011.6
20210918181643 89 6 2.0 10.0 0.00 0.00 0.00 45 1012.0
20210918180039 89 85 2.0 5.0 0.00 0.00 0.00 46 1012.0
20210918174526 88 37 1.0 7.0 0.00 0.00 0.00 49 1012.3
20210918173041 87 41 0.0 8.0 0.00 0.00 0.00 51 1012.4
20210918171546 88 359 5.0 10.0 0.00 0.00 0.00 49 1012.6
20210918170008 87 2 2.0 11.0 0.00 0.00 0.00 51 1012.7
20210918164529 87 56 2.0 5.0 0.00 0.00 0.00 52 1012.8
20210918163032 86 82 3.0 8.0 0.00 0.00 0.00 54 1013.0
20210918161501 85 108 4.0 8.0 0.00 0.00 0.00 56 1013.1
20210918160216 84 233 1.0 6.0 0.00 0.00 0.00 59 1013.2
20210918154628 84 97 2.0 6.0 0.00 0.00 0.00 59 1013.2
20210918153059 83 33 1.0 6.0 0.00 0.00 0.00 63 1013.1
20210918151615 82 269 0.0 4.0 0.00 0.00 0.00 65 1013.2
20210918150044 81 81 2.0 5.0 0.00 0.00 0.00 67 1013.2
20210918144601 79 342 3.0 5.0 0.00 0.00 0.00 68 1013.2
20210918143009 77 358 2.0 3.0 0.00 0.00 0.00 72 1013.2
20210918140050 74 324 0.0 1.0 0.00 0.00 0.00 81 1013.2
20210918134607 71 120 0.0 1.0 0.00 0.00 0.00 85 1013.0
20210918133123 68 146 0.0 0.0 0.00 0.00 0.00 89 1013.2
20210918131722 66 146 0.0 1.0 0.00 0.00 0.00 91 1013.0
20210918130055 65 146 0.0 1.0 0.00 0.00 0.00 92 1012.9
20210918124554 64 269 0.0 1.0 0.00 0.00 0.00 93 1012.8
20210918123053 63 43 0.0 0.0 0.00 0.00 0.00 94 1012.6
20210918121533 63 43 0.0 0.0 0.00 0.00 0.00 94 1012.4
20210918120012 63 43 0.0 0.0 0.00 0.00 0.00 94 1012.0
20210918114528 63 43 0.0 0.0 0.00 0.00 0.00 93 1011.8
20210918113006 63 43 0.0 0.0 0.00 0.00 0.00 93 1011.7
20210918111512 63 43 0.0 1.0 0.00 0.00 0.00 93 1011.7
20210918110134 63 69 0.0 1.0 0.00 0.00 0.00 93 1011.6
20210918103019 63 69 0.0 1.0 0.00 0.00 0.00 93 1011.6
20210918101503 63 69 0.0 1.0 0.00 0.00 0.00 93 1011.7
20210918100206 64 69 0.0 0.0 0.00 0.00 0.00 93 1011.6
20210918094619 64 69 0.0 1.0 0.00 0.00 0.00 93 1011.6
20210918093135 64 18 0.0 0.0 0.00 0.00 0.00 92 1011.7
20210918091624 64 18 0.0 0.0 0.00 0.00 0.00 92 1011.7
20210918090122 64 18 0.0 0.0 0.00 0.00 0.00 91 1011.5
20210918084540 65 18 0.0 0.0 0.00 0.00 0.00 90 1011.3
20210918083039 65 18 0.0 1.0 0.00 0.00 0.00 89 1011.1
20210918081558 65 18 0.0 0.0 0.00 0.00 0.00 88 1011.1
20210918080017 66 18 0.0 1.0 0.00 0.00 0.00 88 1011.2
20210918074518 66 18 0.0 0.0 0.00 0.00 0.00 88 1011.2
20210918073034 67 18 0.0 1.0 0.00 0.00 0.00 87 1011.2
20210918071518 68 18 1.0 2.0 0.00 0.00 0.00 86 1011.1
20210918064708 68 19 0.0 1.0 0.00 0.00 0.00 84 1011.1
20210918063100 69 25 0.0 1.0 0.00 0.00 0.00 83 1010.9
20210918061608 71 80 0.0 1.0 0.00 0.00 0.00 78 1011.0
20210918060043 72 82 0.0 1.0 0.00 0.00 0.00 78 1010.9
20210918054524 73 82 1.0 3.0 0.00 0.00 0.00 77 1010.8
20210918053038 72 98 0.0 1.0 0.00 0.00 0.00 77 1010.8
20210918051529 72 100 0.0 1.0 0.00 0.00 0.00 77 1010.8
20210918050001 73 25 0.0 2.0 0.00 0.00 0.00 75 1010.6
20210918044504 74 105 0.0 0.0 0.00 0.00 0.00 74 1010.6
20210918043016 75 84 0.0 1.0 0.00 0.00 0.00 71 1010.4
20210918041518 76 84 1.0 3.0 0.00 0.00 0.00 70 1010.3
20210918040119 76 97 1.0 3.0 0.00 0.00 0.00 69 1010.3
20210918034631 77 91 1.0 4.0 0.00 0.00 0.00 68 1010.3
20210918033233 77 94 1.0 4.0 0.00 0.00 0.00 67 1010.4
20210918031642 77 79 1.0 4.0 0.00 0.00 0.00 67 1010.4
20210918030045 78 59 1.0 4.0 0.00 0.00 0.00 66 1010.5
20210918024556 79 115 0.0 5.0 0.00 0.00 0.00 63 1010.4
20210918023032 80 76 2.0 5.0 0.00 0.00 0.00 62 1010.0
20210918021543 80 79 2.0 5.0 0.00 0.00 0.00 61 1009.9
20210918020011 81 109 2.0 5.0 0.00 0.00 0.00 60 1009.5
20210918014544 82 82 2.0 6.0 0.00 0.00 0.00 59 1009.4
20210918013012 82 77 3.0 7.0 0.00 0.00 0.00 58 1009.1
20210918011510 83 74 3.0 8.0 0.00 0.00 0.00 57 1008.9
20210918010237 84 91 5.0 10.0 0.00 0.00 0.00 55 1008.7
20210918004504 85 77 4.0 10.0 0.00 0.00 0.00 53 1008.7
20210918003030 87 88 4.0 11.0 0.00 0.00 0.00 51 1008.5
20210918001502 88 89 5.0 10.0 0.00 0.00 0.00 50 1008.4
20210918000058 89 89 5.0 12.0 0.00 0.00 0.00 47 1008.1
20210917234641 90 77 5.0 12.0 0.00 0.00 0.00 46 1008.0
20210917233230 91 122 7.0 13.0 0.00 0.00 0.00 45 1007.9
20210917231620 91 63 3.0 10.0 0.00 0.00 0.00 45 1007.6
20210917230106 92 96 7.0 15.0 0.00 0.00 0.00 44 1007.5
20210917224648 92 132 4.0 11.0 0.00 0.00 0.00 44 1007.5
20210917223050 93 71 5.0 11.0 0.00 0.00 0.00 44 1007.4
20210917221803 93 134 4.0 10.0 0.00 0.00 0.00 42 1007.2
20210917220111 93 93 6.0 10.0 0.00 0.00 0.00 42 1007.3
20210917214546 92 84 4.0 9.0 0.00 0.00 0.00 44 1007.2
20210917213222 93 70 5.0 10.0 0.00 0.00 0.00 42 1007.2
20210917211609 93 162 6.0 12.0 0.00 0.00 0.00 42 1007.1
20210917210032 92 130 6.0 12.0 0.00 0.00 0.00 43 1007.1
20210917204626 93 141 2.0 9.0 0.00 0.00 0.00 43 1007.2
20210917203057 93 110 7.0 11.0 0.00 0.00 0.00 42 1007.5
20210917201540 93 103 5.0 11.0 0.00 0.00 0.00 43 1007.5